CST,Max TemperatureF,Mean TemperatureF,Min TemperatureF,Max Dew PointF,MeanDew PointF,Min DewpointF,Max Humidity, Mean Humidity, Min Humidity, Max Sea Level PressureIn, Mean Sea Level PressureIn, Min Sea Level PressureIn, Max VisibilityMiles, Mean VisibilityMiles, Min VisibilityMiles, Max Wind SpeedMPH, Mean Wind SpeedMPH, Max Gust SpeedMPH,PrecipitationIn, CloudCover, Events, WindDirDegrees
2012-12-1,46,40,35,43,37,33,100,88,76,30.07,29.87,29.74,4,3,2,18,10,26,0.00,6,,149
2012-12-2,39,33,27,37,34,27,100,95,89,30.03,29.93,29.84,5,2,0,13,4,,0.00,6,Fog,141
2012-12-3,55,47,39,54,46,28,100,85,53,29.93,29.67,29.55,10,5,1,21,12,26,0.01,6,Rain,198
2012-12-4,45,34,21,27,17,10,67,55,45,30.46,30.20,29.93,10,10,10,16,13,26,0.00,0,,310
2012-12-5,39,29,19,24,15,10,68,55,43,30.46,30.23,29.90,10,10,10,23,10,32,0.00,2,,126
2012-12-6,46,37,28,36,28,20,79,63,54,30.03,29.89,29.80,10,10,10,20,13,26,0.00,3,,260
2012-12-7,32,28,23,25,23,18,93,81,64,30.09,30.06,30.04,10,5,1,10,5,,0.00,6,Snow,339
2012-12-8,34,30,27,26,24,21,89,78,70,30.09,30.07,30.03,10,9,6,9,4,,0.00,4,,113
2012-12-9,33,27,21,29,27,17,93,90,70,30.05,29.95,29.86,4,1,0,23,8,26,0.47,8,Fog-Snow,79
2012-12-10,21,11,1,16,7,-2,92,80,70,30.00,29.96,29.90,10,8,2,22,12,26,0.00,5,Snow,293
2012-12-11,19,12,5,12,9,2,92,84,74,30.07,29.92,29.81,10,7,2,12,5,,0.00,6,Snow,217
2012-12-12,41,26,10,28,19,7,92,75,53,30.07,29.97,29.88,10,8,2,12,4,,0.00,3,,147
2012-12-13,36,30,23,23,21,19,88,68,52,30.17,30.04,29.95,10,9,5,8,5,,0.00,0,,148
2012-12-14,39,28,17,29,21,17,100,79,59,30.18,30.05,29.83,10,6,2,12,4,,0.00,1,,120
2012-12-15,39,36,34,36,34,29,100,92,67,29.81,29.60,29.52,10,3,0,14,7,,0.30,8,Fog-Rain,115
2012-12-16,35,27,19,32,23,16,93,88,81,29.86,29.73,29.57,10,6,2,15,10,,0.00,8,,303
2012-12-17,25,23,21,20,18,16,89,84,78,29.84,29.79,29.75,10,7,3,7,4,,0.00,8,,77
2012-12-18,28,25,23,23,20,19,92,83,75,29.87,29.74,29.69,8,5,2,8,4,,0.00,8,,109
2012-12-19,32,30,28,28,26,20,93,85,72,30.06,29.99,29.84,10,5,1,10,6,,0.01,7,Snow,185
2012-12-20,27,20,12,20,17,6,86,78,69,30.10,29.93,29.86,10,5,1,24,14,36,0.00,6,Snow,333
2012-12-21,19,14,8,8,5,2,81,71,59,30.31,30.26,30.11,10,10,9,16,11,,0.00,0,,305
2012-12-22,27,18,9,14,10,4,88,71,55,30.25,30.09,29.98,10,9,2,15,5,,0.00,1,,132
2012-12-23,19,14,10,14,7,5,81,72,62,30.20,30.14,30.07,10,10,8,14,8,17,0.00,3,,3
2012-12-24,18,12,6,9,6,-2,77,67,50,30.34,30.14,30.03,10,8,2,13,7,,0.00,5,Snow,343
2012-12-25,12,6,0,1,-2,-6,80,70,61,30.55,30.49,30.36,10,10,10,10,8,,0.00,0,,318
2012-12-26,18,10,3,3,1,-4,73,66,52,30.47,30.37,30.30,10,10,10,8,5,,0.00,3,,334
2012-12-27,21,14,8,18,12,2,93,82,68,30.32,30.22,30.16,10,4,1,6,2,,0.00,6,Snow,77
2012-12-28,25,18,12,18,16,11,92,82,69,30.18,30.10,30.02,10,4,1,7,3,,0.01,7,Snow,50
2012-12-29,19,12,6,15,9,1,88,78,71,30.24,30.13,30.06,10,7,2,10,7,,0.00,6,Snow,261
2012-12-30,23,12,1,15,5,-2,92,81,68,30.26,30.13,29.95,10,6,3,10,5,,0.00,1,,156
2012-12-31,18,10,1,12,3,-8,79,67,49,30.32,30.18,29.99,10,10,8,20,12,26,0.00,2,,309